Time;durP1;ratioP1;P1;durP2;ratioP2;P2;SDS_P1;SDS_P2;PMS_P1;PMS_P2;Temp;Humidity;BMP_temperature;BMP_pressure;BME280_temperature;BME280_humidity;BME280_pressure;Samples;Min_cycle;Max_cycle;Signal;HPM_P1;HPM_P2
2023/04/15 00:01:18;;;;;;;;;;;;;;;10.52;71.88;100790.47;108943;1255;72659;-84
2023/04/15 00:03:45;;;;;;;;;;;;;;;10.54;71.94;100792.45;108925;1256;126276;-85
2023/04/15 00:06:12;;;;;;;;;;;;;;;10.56;71.83;100797.58;108904;1257;70707;-85
2023/04/15 00:08:39;;;;;;;;;;;;;;;10.57;71.75;100790.95;108887;1256;58550;-85
2023/04/15 00:11:06;;;;;;;;;;;;;;;10.59;71.79;100794.52;108739;1256;125112;-85
2023/04/15 00:13:33;;;;;;;;;;;;;;;10.62;71.81;100798.48;108887;1256;73887;-85
2023/04/15 00:16:00;;;;;;;;;;;;;;;10.63;71.58;100795.33;108665;1257;256174;-84
2023/04/15 00:18:28;;;;;;;;;;;;;;;10.63;71.65;100797.77;108935;1259;73074;-84
2023/04/15 00:20:55;;;;;;;;;;;;;;;10.62;71.62;100795.67;108966;1256;60067;-84
2023/04/15 00:23:22;;;;;;;;;;;;;;;10.63;71.68;100792.52;108872;1257;125810;-84
2023/04/15 00:25:49;;;;;;;;;;;;;;;10.65;71.53;100786.95;109002;1255;73945;-84
2023/04/15 00:28:16;;;;;;;;;;;;;;;10.66;71.47;100783.99;108841;1256;127145;-84
2023/04/15 00:30:43;;;;;;;;;;;;;;;10.66;71.52;100783.09;108840;1257;73821;-84
2023/04/15 00:33:11;;;;;;;;;;;;;;;10.66;71.48;100781.20;108864;1256;58594;-84
2023/04/15 00:35:38;;;;;;;;;;;;;;;10.65;71.40;100781.69;108821;1257;123442;-85
2023/04/15 00:38:06;;;;;;;;;;;;;;;10.64;71.38;100782.36;109046;1257;74664;-85
2023/04/15 00:40:34;;;;;;;;;;;;;;;10.63;71.48;100777.60;108777;1262;125912;-85
2023/04/15 00:43:01;;;;;;;;;;;;;;;10.62;71.46;100779.67;108748;1256;72755;-85
2023/04/15 00:45:28;;;;;;;;;;;;;;;10.59;71.36;100779.24;108829;1256;58562;-85
2023/04/15 00:47:55;;;;;;;;;;;;;;;10.58;71.36;100785.00;108805;1257;124636;-85
2023/04/15 00:50:22;;;;;;;;;;;;;;;10.58;71.43;100780.44;108875;1257;73904;-84
2023/04/15 00:52:49;;;;;;;;;;;;;;;10.58;71.39;100776.94;108849;1256;125408;-84
2023/04/15 00:55:16;;;;;;;;;;;;;;;10.58;71.45;100776.94;108873;1262;72659;-85
2023/04/15 00:57:43;;;;;;;;;;;;;;;10.57;71.35;100780.08;108910;1256;124921;-85
2023/04/15 01:00:10;;;;;;;;;;;;;;;10.57;71.32;100784.11;108931;1257;60140;-85
2023/04/15 01:02:37;;;;;;;;;;;;;;;10.58;71.34;100779.76;108975;1257;72885;-84
2023/04/15 01:05:05;;;;;;;;;;;;;;;10.57;71.31;100783.42;108878;1260;124721;-85
2023/04/15 01:07:32;;;;;;;;;;;;;;;10.55;71.25;100781.95;109027;1256;71405;-84
2023/04/15 01:09:58;;;;;;;;;;;;;;;10.52;71.24;100785.92;108877;1255;125320;-85
2023/04/15 01:12:26;;;;;;;;;;;;;;;10.52;71.34;100786.44;108864;1256;59064;-85
2023/04/15 01:14:53;;;;;;;;;;;;;;;10.52;71.21;100783.80;108957;1257;73255;-84
2023/04/15 01:17:20;;;;;;;;;;;;;;;10.51;71.27;100786.41;108684;1257;126129;-85
2023/04/15 01:19:47;;;;;;;;;;;;;;;10.48;71.19;100787.39;108805;1256;71574;-85
2023/04/15 01:22:15;;;;;;;;;;;;;;;10.45;71.14;100788.53;108778;1259;124091;-85
2023/04/15 01:24:43;;;;;;;;;;;;;;;10.40;71.18;100787.02;108980;1256;58814;-85
2023/04/15 01:27:10;;;;;;;;;;;;;;;10.36;71.20;100786.03;108951;1260;71743;-85
2023/04/15 01:29:37;;;;;;;;;;;;;;;10.32;71.29;100789.95;108731;1262;125277;-84
2023/04/15 01:32:04;;;;;;;;;;;;;;;10.28;71.25;100793.31;108956;1256;72542;-85
2023/04/15 01:34:31;;;;;;;;;;;;;;;10.26;71.50;100787.84;108838;1260;124915;-85
2023/04/15 01:36:58;;;;;;;;;;;;;;;10.28;71.55;100793.84;108946;1260;58829;-85
2023/04/15 01:39:25;;;;;;;;;;;;;;;10.30;71.65;100791.48;109022;1257;73778;-85
2023/04/15 01:41:52;;;;;;;;;;;;;;;10.32;71.71;100790.65;108905;1259;126422;-85
2023/04/15 01:44:19;;;;;;;;;;;;;;;10.33;71.68;100786.83;108912;1256;72965;-85
2023/04/15 01:46:47;;;;;;;;;;;;;;;10.33;71.75;100788.40;108703;1257;124838;-84
2023/04/15 01:49:14;;;;;;;;;;;;;;;10.31;71.74;100788.00;108828;1257;58817;-85
2023/04/15 01:51:41;;;;;;;;;;;;;;;10.33;71.81;100790.66;108861;1257;124736;-85
2023/04/15 01:54:08;;;;;;;;;;;;;;;10.36;71.81;100790.60;108900;1257;67060;-85
2023/04/15 01:56:35;;;;;;;;;;;;;;;10.37;71.80;100789.91;108876;1256;74049;-84
2023/04/15 01:59:02;;;;;;;;;;;;;;;10.38;71.81;100790.63;108820;1256;125910;-85
2023/04/15 02:01:29;;;;;;;;;;;;;;;10.39;71.80;100792.76;108867;1258;58824;-84
2023/04/15 02:03:56;;;;;;;;;;;;;;;10.42;71.84;100792.67;108834;1256;125546;-84
2023/04/15 02:06:24;;;;;;;;;;;;;;;10.42;71.79;100794.63;109059;1255;67021;-84
2023/04/15 02:08:51;;;;;;;;;;;;;;;10.40;71.81;100795.79;108923;1257;72266;-84
2023/04/15 02:11:18;;;;;;;;;;;;;;;10.35;71.78;100796.52;108812;1256;124827;-84
2023/04/15 02:13:45;;;;;;;;;;;;;;;10.26;71.82;100797.14;108910;1260;60161;-85
2023/04/15 02:16:18;;;;;;;;;;;;;;;10.17;71.83;100798.48;108930;1257;124856;-84
2023/04/15 02:18:45;;;;;;;;;;;;;;;10.09;72.00;100800.70;108889;1256;65517;-84
2023/04/15 02:21:13;;;;;;;;;;;;;;;10.02;72.19;100797.88;108893;1256;72505;-84
2023/04/15 02:23:40;;;;;;;;;;;;;;;9.97;72.31;100800.72;108785;1257;125057;-84
2023/04/15 02:26:07;;;;;;;;;;;;;;;9.90;72.46;100799.13;109027;1257;61352;-84
2023/04/15 02:28:33;;;;;;;;;;;;;;;9.83;72.63;100805.23;108734;1256;125128;-84
2023/04/15 02:31:05;;;;;;;;;;;;;;;9.78;72.68;100802.80;108915;1257;67151;-84
2023/04/15 02:33:32;;;;;;;;;;;;;;;9.73;72.93;100798.45;108654;1257;125123;-85
2023/04/15 02:35:59;;;;;;;;;;;;;;;9.71;73.12;100800.34;108796;1257;59570;-84
2023/04/15 02:38:26;;;;;;;;;;;;;;;9.74;73.28;100800.91;108913;1257;60101;-84
2023/04/15 02:40:53;;;;;;;;;;;;;;;9.74;73.27;100798.65;108899;1257;124921;-85
2023/04/15 02:43:20;;;;;;;;;;;;;;;9.76;73.38;100800.98;108949;1256;67197;-84
2023/04/15 02:45:47;;;;;;;;;;;;;;;9.73;73.35;100801.96;108748;1260;124623;-85
2023/04/15 02:48:15;;;;;;;;;;;;;;;9.73;73.51;100801.77;108929;1260;59690;-84
2023/04/15 02:50:42;;;;;;;;;;;;;;;9.72;73.51;100804.90;108993;1257;58659;-85
2023/04/15 02:53:09;;;;;;;;;;;;;;;9.72;73.68;100805.61;108814;1256;124897;-84
2023/04/15 02:55:36;;;;;;;;;;;;;;;9.73;73.70;100797.58;108913;1259;65068;-85
2023/04/15 02:58:03;;;;;;;;;;;;;;;9.74;73.77;100800.58;108828;1257;126605;-84
2023/04/15 03:00:30;;;;;;;;;;;;;;;9.73;73.74;100800.21;109039;1256;60301;-85
2023/04/15 03:03:01;;;;;;;;;;;;;;;9.71;73.79;100800.52;108970;1257;59678;-85
2023/04/15 03:05:28;;;;;;;;;;;;;;;9.70;73.84;100799.61;108824;1261;126140;-85
2023/04/15 03:07:55;;;;;;;;;;;;;;;9.72;73.86;100801.25;108961;1257;66369;-85
2023/04/15 03:10:22;;;;;;;;;;;;;;;9.75;73.92;100803.59;108748;1256;126258;-85
2023/04/15 03:12:49;;;;;;;;;;;;;;;9.76;73.92;100799.27;108854;1256;58402;-85
2023/04/15 03:15:16;;;;;;;;;;;;;;;9.79;73.95;100802.66;108926;1254;58897;-85
2023/04/15 03:17:43;;;;;;;;;;;;;;;9.82;73.92;100802.73;108879;1256;125121;-85
2023/04/15 03:20:10;;;;;;;;;;;;;;;9.85;74.01;100801.42;108890;1261;66339;-85
2023/04/15 03:22:37;;;;;;;;;;;;;;;9.85;73.93;100801.98;108758;1256;126143;-85
2023/04/15 03:25:04;;;;;;;;;;;;;;;9.86;73.91;100806.73;108976;1257;60065;-85
2023/04/15 03:27:31;;;;;;;;;;;;;;;9.86;73.90;100807.41;108774;1257;124571;-85
2023/04/15 03:29:58;;;;;;;;;;;;;;;9.85;73.86;100803.88;108874;1260;72725;-85
2023/04/15 03:32:26;;;;;;;;;;;;;;;9.85;73.94;100809.52;108938;1257;67197;-85
2023/04/15 03:34:52;;;;;;;;;;;;;;;9.85;73.94;100812.13;108775;1256;125450;-85
2023/04/15 03:37:19;;;;;;;;;;;;;;;9.85;73.96;100810.36;108924;1253;59607;-85
2023/04/15 03:39:46;;;;;;;;;;;;;;;9.83;74.01;100812.24;108773;1257;124551;-85
2023/04/15 03:42:13;;;;;;;;;;;;;;;9.83;73.97;100808.03;108941;1259;71940;-85
2023/04/15 03:44:41;;;;;;;;;;;;;;;9.84;74.10;100808.23;108863;1257;66960;-85
2023/04/15 03:47:08;;;;;;;;;;;;;;;9.85;74.12;100809.69;108887;1257;124639;-85
2023/04/15 03:49:35;;;;;;;;;;;;;;;9.88;74.07;100806.61;108951;1257;58716;-85
2023/04/15 03:52:02;;;;;;;;;;;;;;;9.87;73.98;100809.18;108922;1256;125179;-85
2023/04/15 03:54:29;;;;;;;;;;;;;;;9.83;73.94;100811.70;109037;1257;73882;-84
2023/04/15 03:56:56;;;;;;;;;;;;;;;9.80;74.02;100810.91;109058;1257;66535;-84
2023/04/15 03:59:23;;;;;;;;;;;;;;;9.76;73.99;100813.07;108936;1259;125101;-85
2023/04/15 04:01:50;;;;;;;;;;;;;;;9.75;74.17;100808.31;108887;1256;58546;-85
2023/04/15 04:04:17;;;;;;;;;;;;;;;9.72;74.12;100811.40;108777;1262;125608;-85
2023/04/15 04:06:44;;;;;;;;;;;;;;;9.70;74.15;100812.38;108869;1262;74206;-85
2023/04/15 04:09:11;;;;;;;;;;;;;;;9.69;74.30;100812.71;108928;1259;66616;-85
2023/04/15 04:11:38;;;;;;;;;;;;;;;9.71;74.42;100814.36;108780;1256;125132;-85
2023/04/15 04:14:05;;;;;;;;;;;;;;;9.75;74.36;100815.86;108897;1270;59170;-85
2023/04/15 04:16:32;;;;;;;;;;;;;;;9.77;74.46;100820.12;108819;1256;127159;-85
2023/04/15 04:18:59;;;;;;;;;;;;;;;9.77;74.34;100820.48;108964;1270;73161;-85
2023/04/15 04:21:26;;;;;;;;;;;;;;;9.76;74.30;100823.77;109052;1257;65804;-85
2023/04/15 04:23:53;;;;;;;;;;;;;;;9.76;74.38;100821.67;108790;1257;124797;-85
2023/04/15 04:26:21;;;;;;;;;;;;;;;9.77;74.29;100819.79;108936;1257;59277;-85
2023/04/15 04:28:48;;;;;;;;;;;;;;;9.77;74.37;100823.27;108780;1257;125335;-85
2023/04/15 04:31:15;;;;;;;;;;;;;;;9.77;74.33;100824.15;109018;1256;72888;-84
2023/04/15 04:33:41;;;;;;;;;;;;;;;9.78;74.40;100822.08;108825;1257;125192;-83
2023/04/15 04:36:08;;;;;;;;;;;;;;;9.80;74.47;100821.44;108998;1257;72708;-83
2023/04/15 04:38:35;;;;;;;;;;;;;;;9.82;74.49;100819.73;108909;1258;60115;-84
2023/04/15 04:41:02;;;;;;;;;;;;;;;9.83;74.48;100822.21;108797;1255;126805;-83
2023/04/15 04:43:29;;;;;;;;;;;;;;;9.85;74.41;100820.88;109001;1272;72375;-83
2023/04/15 04:45:56;;;;;;;;;;;;;;;9.86;74.42;100823.55;108809;1256;125200;-83
2023/04/15 04:48:23;;;;;;;;;;;;;;;9.91;74.48;100824.92;108887;1269;72699;-83
2023/04/15 04:50:50;;;;;;;;;;;;;;;9.95;74.54;100829.23;108881;1260;58823;-84
2023/04/15 04:53:17;;;;;;;;;;;;;;;9.98;74.43;100827.73;108834;1257;124437;-83
2023/04/15 04:55:44;;;;;;;;;;;;;;;9.99;74.50;100832.50;108859;1260;73247;-82
2023/04/15 04:58:11;;;;;;;;;;;;;;;10.04;74.52;100832.47;108894;1260;125503;-83
2023/04/15 05:00:39;;;;;;;;;;;;;;;10.08;74.46;100836.98;108873;1257;72079;-83
2023/04/15 05:03:06;;;;;;;;;;;;;;;10.12;74.51;100835.52;108771;1273;59791;-83
2023/04/15 05:05:34;;;;;;;;;;;;;;;10.16;74.43;100833.69;108660;1263;125234;-83
2023/04/15 05:08:01;;;;;;;;;;;;;;;10.21;74.48;100833.98;108825;1261;75068;-83
2023/04/15 05:10:28;;;;;;;;;;;;;;;10.26;74.54;100834.67;108807;1261;126159;-83
2023/04/15 05:12:55;;;;;;;;;;;;;;;10.32;74.46;100836.08;108977;1257;73031;-83
2023/04/15 05:15:22;;;;;;;;;;;;;;;10.37;74.32;100839.20;108791;1262;58564;-83
2023/04/15 05:17:52;;;;;;;;;;;;;;;10.42;74.28;100839.88;108873;1257;125472;-83
2023/04/15 05:20:19;;;;;;;;;;;;;;;10.47;74.23;100840.19;108882;1255;73828;-83
2023/04/15 05:22:46;;;;;;;;;;;;;;;10.51;74.15;100840.64;108797;1257;125591;-83
2023/04/15 05:25:12;;;;;;;;;;;;;;;10.56;74.13;100837.06;108868;1256;72482;-83
2023/04/15 05:27:39;;;;;;;;;;;;;;;10.60;74.09;100838.26;108849;1260;125563;-83
2023/04/15 05:30:07;;;;;;;;;;;;;;;10.66;74.12;100845.95;108942;1257;60194;-83
2023/04/15 05:32:34;;;;;;;;;;;;;;;10.73;74.03;100843.67;108920;1257;74445;-83
2023/04/15 05:35:01;;;;;;;;;;;;;;;10.83;74.00;100841.11;108875;1262;125478;-84
2023/04/15 05:37:28;;;;;;;;;;;;;;;10.95;73.93;100842.64;108997;1257;73259;-84
2023/04/15 05:39:55;;;;;;;;;;;;;;;11.03;73.72;100842.33;108744;1260;125464;-84
2023/04/15 05:42:22;;;;;;;;;;;;;;;11.14;73.60;100841.35;108916;1257;60170;-83
2023/04/15 05:44:49;;;;;;;;;;;;;;;11.27;73.47;100842.38;109004;1260;76137;-84
2023/04/15 05:47:22;;;;;;;;;;;;;;;11.41;73.25;100842.16;108818;1258;124283;-84
2023/04/15 05:49:49;;;;;;;;;;;;;;;11.51;73.05;100837.46;108925;1257;72550;-84
2023/04/15 05:52:16;;;;;;;;;;;;;;;11.63;72.99;100839.31;108784;1258;126822;-84
2023/04/15 05:54:46;;;;;;;;;;;;;;;11.74;72.76;100842.19;108910;1257;59383;-84
2023/04/15 05:57:15;;;;;;;;;;;;;;;11.87;72.72;100839.67;108730;1257;75512;-83
2023/04/15 05:59:43;;;;;;;;;;;;;;;12.03;72.42;100844.08;108935;1257;124831;-82
2023/04/15 06:02:10;;;;;;;;;;;;;;;12.12;72.12;100846.17;108966;1256;72386;-82
2023/04/15 06:04:38;;;;;;;;;;;;;;;12.16;71.88;100843.61;108952;1256;125452;-83
2023/04/15 06:07:06;;;;;;;;;;;;;;;12.23;71.77;100844.29;108894;1257;59305;-84
2023/04/15 06:09:33;;;;;;;;;;;;;;;12.29;71.60;100845.64;108935;1257;74417;-84
2023/04/15 06:12:11;;;;;;;;;;;;;;;12.33;71.44;100848.88;108790;1257;64952;-84
2023/04/15 06:14:40;;;;;;;;;;;;;;;12.38;71.20;100848.79;108665;1257;72505;-85
2023/04/15 06:17:33;;;;;;;;;;;;;;;;;;;;;
2023/04/15 06:20:10;;;;;;;;;;;;;;;12.58;70.97;100848.83;108958;1257;59219;-85
2023/04/15 06:22:38;;;;;;;;;;;;;;;12.61;70.72;100849.77;108977;1257;74601;-84
2023/04/15 06:25:17;;;;;;;;;;;;;;;12.61;70.59;100846.60;108952;1257;67533;-84
2023/04/15 06:27:44;;;;;;;;;;;;;;;12.68;70.50;100843.71;108691;1257;125536;-84
2023/04/15 06:30:14;;;;;;;;;;;;;;;12.77;70.29;100848.81;108906;1257;59550;-85
2023/04/15 06:32:55;;;;;;;;;;;;;;;12.88;70.33;100847.95;108829;1257;60615;-85
2023/04/15 06:35:26;;;;;;;;;;;;;;;13.07;70.17;100847.20;108654;1256;125224;-91
2023/04/15 06:37:53;;;;;;;;;;;;;;;13.30;69.97;100847.06;108834;1258;65801;-91
2023/04/15 06:40:20;;;;;;;;;;;;;;;13.48;69.77;100845.58;108763;1257;124449;-85
2023/04/15 06:42:47;;;;;;;;;;;;;;;13.64;69.43;100847.21;108465;1256;59678;-92
2023/04/15 06:45:16;;;;;;;;;;;;;;;13.76;69.28;100848.61;108614;1258;61164;-94
2023/04/15 06:47:52;;;;;;;;;;;;;;;13.90;68.88;100854.44;107637;1256;123106;-90
2023/04/15 06:50:19;;;;;;;;;;;;;;;14.05;68.59;100853.39;107968;1258;67835;-86
2023/04/15 06:53:04;;;;;;;;;;;;;;;14.17;68.42;100859.02;107861;1269;124580;-86
2023/04/15 06:55:40;;;;;;;;;;;;;;;14.27;68.10;100856.48;107407;1257;61458;-85
2023/04/15 06:58:07;;;;;;;;;;;;;;;14.21;67.51;100858.18;107423;1263;124736;-84
2023/04/15 07:04:01;;;;;;;;;;;;;;;14.23;67.37;100858.90;107468;1260;67140;-86
2023/04/15 07:06:31;;;;;;;;;;;;;;;14.34;66.99;100855.16;107636;1258;71813;-86
2023/04/15 07:08:58;;;;;;;;;;;;;;;14.43;66.75;100857.19;107747;1259;61263;-85
2023/04/15 07:11:28;;;;;;;;;;;;;;;14.38;66.38;100858.72;107477;1258;124299;-86
2023/04/15 07:13:56;;;;;;;;;;;;;;;14.29;66.14;100863.56;107533;1258;73965;-84
2023/04/15 07:16:23;;;;;;;;;;;;;;;14.18;66.04;100864.51;107483;1257;124710;-88
2023/04/15 07:18:51;;;;;;;;;;;;;;;14.11;65.92;100867.95;107445;1260;73287;-86
2023/04/15 07:21:18;;;;;;;;;;;;;;;13.91;65.63;100869.80;107475;1257;61382;-86
2023/04/15 07:23:45;;;;;;;;;;;;;;;13.69;65.62;100869.86;107472;1256;124225;-86
2023/04/15 07:26:12;;;;;;;;;;;;;;;13.51;65.66;100875.23;107736;1260;75901;-88
2023/04/15 07:28:41;;;;;;;;;;;;;;;13.34;65.73;100877.62;107721;1257;124754;-86
2023/04/15 07:31:08;;;;;;;;;;;;;;;13.27;65.97;100876.23;107403;1257;71542;-85
2023/04/15 07:33:41;;;;;;;;;;;;;;;13.30;66.08;100880.02;107491;1256;59658;-86
2023/04/15 07:36:15;;;;;;;;;;;;;;;13.36;66.06;100879.42;108629;1260;123469;-85
2023/04/15 07:38:42;;;;;;;;;;;;;;;13.54;66.28;100877.22;108963;1255;73378;-83
2023/04/15 07:41:09;;;;;;;;;;;;;;;13.71;65.95;100875.00;108932;1256;123053;-82
2023/04/15 07:43:36;;;;;;;;;;;;;;;13.78;65.75;100877.05;109168;1257;71680;-84
2023/04/15 07:46:03;;;;;;;;;;;;;;;13.78;65.36;100880.75;108922;1256;124772;-85
2023/04/15 07:48:30;;;;;;;;;;;;;;;13.80;65.09;100881.48;108883;1257;59323;-84
2023/04/15 07:50:57;;;;;;;;;;;;;;;13.80;64.85;100874.06;109025;1255;75763;-84
2023/04/15 07:53:25;;;;;;;;;;;;;;;13.83;64.85;100876.75;108680;1258;124847;-84
2023/04/15 07:55:51;;;;;;;;;;;;;;;13.87;64.71;100875.22;108795;1257;72177;-84
2023/04/15 07:58:18;;;;;;;;;;;;;;;13.85;64.54;100877.49;108737;1257;124943;-84
2023/04/15 08:00:45;;;;;;;;;;;;;;;13.75;64.37;100875.04;108905;1260;59914;-85
2023/04/15 08:03:15;;;;;;;;;;;;;;;13.70;64.36;100876.94;108933;1257;73397;-89
2023/04/15 08:05:42;;;;;;;;;;;;;;;13.71;64.46;100873.58;108716;1257;124207;-85
2023/04/15 08:08:09;;;;;;;;;;;;;;;13.76;64.50;100874.70;108788;1256;71573;-85
2023/04/15 08:10:36;;;;;;;;;;;;;;;13.74;64.22;100876.11;108848;1257;124070;-85
2023/04/15 08:13:03;;;;;;;;;;;;;;;13.70;64.20;100875.16;108957;1260;60168;-85
2023/04/15 08:15:31;;;;;;;;;;;;;;;13.66;64.04;100880.21;108801;1256;73689;-85
2023/04/15 08:17:59;;;;;;;;;;;;;;;13.54;63.92;100882.68;108812;1257;124255;-85
2023/04/15 08:20:27;;;;;;;;;;;;;;;13.51;63.91;100883.87;108910;1256;72536;-85
2023/04/15 08:22:54;;;;;;;;;;;;;;;13.51;63.78;100880.34;108249;1257;124650;-85
2023/04/15 08:25:21;;;;;;;;;;;;;;;13.54;63.88;100884.10;107674;1257;60668;-84
2023/04/15 08:27:48;;;;;;;;;;;;;;;13.69;63.83;100878.66;107436;1256;124649;-89
2023/04/15 08:30:15;;;;;;;;;;;;;;;13.77;63.50;100883.20;107591;1257;65862;-86
2023/04/15 08:32:45;;;;;;;;;;;;;;;13.79;63.10;100878.98;107535;1261;70799;-84
2023/04/15 08:35:12;;;;;;;;;;;;;;;13.81;62.94;100880.42;107580;1256;124035;-85
2023/04/15 08:37:40;;;;;;;;;;;;;;;13.83;62.80;100881.33;107779;1267;59730;-88
2023/04/15 08:40:08;;;;;;;;;;;;;;;13.78;62.75;100882.31;107573;1256;124917;-84
2023/04/15 08:42:40;;;;;;;;;;;;;;;13.72;62.63;100886.65;107894;1257;67304;-86
2023/04/15 08:45:08;;;;;;;;;;;;;;;13.64;62.60;100888.47;107836;1257;73164;-87
2023/04/15 08:47:35;;;;;;;;;;;;;;;13.57;62.59;100894.02;107869;1257;124661;-87
2023/04/15 08:50:03;;;;;;;;;;;;;;;13.54;62.77;100892.56;108034;1257;60531;-87
2023/04/15 08:52:30;;;;;;;;;;;;;;;13.54;62.59;100892.91;107414;1257;126258;-84
2023/04/15 08:55:00;;;;;;;;;;;;;;;13.53;62.69;100893.09;107426;1256;66777;-86
2023/04/15 08:57:27;;;;;;;;;;;;;;;13.48;62.56;100896.17;107538;1260;71467;-85
2023/04/15 08:59:57;;;;;;;;;;;;;;;13.42;62.52;100894.52;107396;1257;125044;-86
2023/04/15 09:02:27;;;;;;;;;;;;;;;13.39;62.59;100896.91;107478;1260;61202;-86
2023/04/15 09:04:54;;;;;;;;;;;;;;;13.35;62.55;100894.55;107516;1257;124587;-86
2023/04/15 09:07:21;;;;;;;;;;;;;;;13.32;62.72;100895.92;107622;1257;66170;-86
2023/04/15 09:09:48;;;;;;;;;;;;;;;13.35;62.80;100897.04;107583;1257;73435;-86
2023/04/15 09:12:16;;;;;;;;;;;;;;;13.35;62.92;100896.68;107564;1256;123420;-85
2023/04/15 09:14:44;;;;;;;;;;;;;;;13.37;62.79;100895.30;107521;1257;61292;-83
2023/04/15 09:17:11;;;;;;;;;;;;;;;13.35;62.77;100896.84;107689;1256;125649;-86
2023/04/15 09:19:38;;;;;;;;;;;;;;;13.32;62.63;100894.69;107581;1260;66012;-86
2023/04/15 09:22:05;;;;;;;;;;;;;;;13.34;62.96;100895.95;107465;1256;124459;-84
2023/04/15 09:24:37;;;;;;;;;;;;;;;13.39;62.70;100898.16;107226;1255;61391;-86
2023/04/15 09:27:03;;;;;;;;;;;;;;;13.38;62.68;100897.96;107393;1257;61286;-86
2023/04/15 09:29:54;;;;;;;;;;;;;;;13.35;62.66;100895.98;107482;1258;124892;-84
2023/04/15 09:32:23;;;;;;;;;;;;;;;13.38;62.73;100897.98;107505;1257;66527;-86
2023/04/15 09:35:04;;;;;;;;;;;;;;;13.35;62.64;100895.79;107886;1256;124150;-86
2023/04/15 09:37:40;;;;;;;;;;;;;;;13.33;62.71;100892.42;108732;1270;59466;-85
2023/04/15 09:40:08;;;;;;;;;;;;;;;13.32;62.67;100893.46;108931;1256;125104;-85
2023/04/15 09:42:36;;;;;;;;;;;;;;;13.30;62.64;100896.95;108844;1256;74825;-85
2023/04/15 09:45:13;;;;;;;;;;;;;;;13.29;62.60;100899.19;108917;1256;65546;-85
2023/04/15 09:47:43;;;;;;;;;;;;;;;13.24;62.60;100895.77;108758;1256;125508;-85
2023/04/15 09:50:10;;;;;;;;;;;;;;;13.19;62.58;100900.61;108847;1257;59924;-83
2023/04/15 09:52:41;;;;;;;;;;;;;;;13.15;62.70;100905.29;108869;1259;126047;-84
2023/04/15 09:55:11;;;;;;;;;;;;;;;13.18;62.78;100903.41;108709;1260;75434;-84
2023/04/15 09:57:40;;;;;;;;;;;;;;;13.20;62.78;100904.33;108898;1258;67710;-85
2023/04/15 10:00:07;;;;;;;;;;;;;;;13.22;62.78;100910.00;108729;1256;125877;-86
2023/04/15 10:02:35;;;;;;;;;;;;;;;13.29;62.91;100905.02;108787;1257;59492;-86
2023/04/15 10:05:11;;;;;;;;;;;;;;;13.46;63.11;100903.02;108877;1256;125309;-86
2023/04/15 10:07:49;;;;;;;;;;;;;;;13.69;62.91;100903.89;108926;1256;74593;-86
2023/04/15 10:10:16;;;;;;;;;;;;;;;13.87;62.71;100903.09;108749;1256;124257;-86
2023/04/15 10:12:44;;;;;;;;;;;;;;;13.94;62.32;100901.77;108866;1256;71388;-86
2023/04/15 10:15:14;;;;;;;;;;;;;;;14.02;62.31;100906.11;108822;1256;59373;-85
2023/04/15 10:17:42;;;;;;;;;;;;;;;14.09;62.12;100903.03;108937;1256;124201;-86
2023/04/15 10:20:11;;;;;;;;;;;;;;;14.07;61.98;100901.05;108824;1257;74714;-86
2023/04/15 10:22:38;;;;;;;;;;;;;;;14.02;61.93;100901.88;108810;1256;124727;-86
2023/04/15 10:25:05;;;;;;;;;;;;;;;14.09;62.12;100903.03;108849;1256;73740;-86
2023/04/15 10:27:39;;;;;;;;;;;;;;;14.05;61.67;100906.16;108823;1257;59791;-86
2023/04/15 10:30:06;;;;;;;;;;;;;;;14.00;61.64;100901.67;108790;1256;123803;-86
2023/04/15 10:32:36;;;;;;;;;;;;;;;14.15;61.77;100901.88;108841;1254;75396;-85
2023/04/15 10:35:08;;;;;;;;;;;;;;;14.36;61.82;100901.60;108687;1257;124577;-85
2023/04/15 10:37:36;;;;;;;;;;;;;;;14.53;61.51;100901.45;108753;1257;73208;-85
2023/04/15 10:40:21;;;;;;;;;;;;;;;14.62;61.24;100901.05;108716;1256;124799;-86
2023/04/15 10:42:48;;;;;;;;;;;;;;;14.70;60.96;100902.18;109017;1256;60126;-85
2023/04/15 10:45:16;;;;;;;;;;;;;;;14.77;60.88;100900.49;108900;1257;74363;-85
2023/04/15 10:47:43;;;;;;;;;;;;;;;14.85;60.70;100900.05;108728;1257;125057;-86
2023/04/15 10:50:10;;;;;;;;;;;;;;;14.97;60.61;100899.29;108851;1256;73071;-85
2023/04/15 10:52:39;;;;;;;;;;;;;;;15.12;60.34;100903.48;108697;1256;125585;-86
2023/04/15 10:55:09;;;;;;;;;;;;;;;15.08;59.93;100898.86;109008;1256;59548;-86
2023/04/15 10:57:39;;;;;;;;;;;;;;;15.06;59.89;100899.36;108963;1255;75221;-86
2023/04/15 11:00:10;;;;;;;;;;;;;;;15.02;59.72;100897.38;108856;1256;125048;-86
2023/04/15 11:02:38;;;;;;;;;;;;;;;14.86;59.53;100900.23;108955;1256;72999;-86
2023/04/15 11:05:06;;;;;;;;;;;;;;;14.56;59.44;100902.38;108832;1256;124006;-86
2023/04/15 11:07:33;;;;;;;;;;;;;;;14.40;59.83;100901.47;108858;1256;59820;-86
2023/04/15 11:10:04;;;;;;;;;;;;;;;14.36;60.06;100900.90;108828;1257;124297;-86
2023/04/15 11:12:35;;;;;;;;;;;;;;;14.36;60.14;100902.31;108820;1259;67049;-85
2023/04/15 11:15:22;;;;;;;;;;;;;;;14.30;60.05;100902.60;108901;1257;72466;-86
2023/04/15 11:17:50;;;;;;;;;;;;;;;14.22;60.08;100897.89;108716;1256;124839;-84
2023/04/15 11:20:17;;;;;;;;;;;;;;;14.17;60.28;100898.72;108893;1257;59386;-85
2023/04/15 11:22:50;;;;;;;;;;;;;;;14.15;60.40;100902.58;108748;1256;125179;-86
2023/04/15 11:25:24;;;;;;;;;;;;;;;14.15;60.28;100900.28;108833;1256;67096;-85
2023/04/15 11:27:53;;;;;;;;;;;;;;;14.22;60.30;100902.48;108950;1255;73101;-86
2023/04/15 11:30:23;;;;;;;;;;;;;;;14.30;60.25;100904.71;108829;1256;123936;-86
2023/04/15 11:32:51;;;;;;;;;;;;;;;14.36;60.11;100904.95;108911;1256;59260;-85
2023/04/15 11:35:18;;;;;;;;;;;;;;;14.43;60.12;100906.62;108733;1256;125354;-86
2023/04/15 11:37:45;;;;;;;;;;;;;;;14.49;59.93;100907.23;108852;1256;67376;-87
2023/04/15 11:40:14;;;;;;;;;;;;;;;14.53;60.02;100906.58;108688;1256;124817;-85
2023/04/15 11:42:44;;;;;;;;;;;;;;;14.76;60.31;100904.54;108815;1257;59338;-85
2023/04/15 11:45:11;;;;;;;;;;;;;;;15.06;60.40;100910.13;109014;1257;59915;-86
2023/04/15 11:47:39;;;;;;;;;;;;;;;15.16;59.95;100907.23;108711;1257;124844;-86
2023/04/15 11:50:18;;;;;;;;;;;;;;;15.07;59.66;100909.45;108971;1257;66999;-85
2023/04/15 11:52:53;;;;;;;;;;;;;;;14.85;59.66;100907.29;108744;1256;124284;-85
2023/04/15 11:55:20;;;;;;;;;;;;;;;14.74;59.89;100907.01;108745;1256;59424;-83
2023/04/15 11:57:47;;;;;;;;;;;;;;;14.72;60.07;100914.04;108813;1259;59479;-87
2023/04/15 12:00:15;;;;;;;;;;;;;;;14.69;59.95;100915.95;108845;1256;124389;-88
2023/04/15 12:02:43;;;;;;;;;;;;;;;14.64;60.05;100915.55;108804;1256;68363;-87
2023/04/15 12:05:11;;;;;;;;;;;;;;;14.64;60.26;100919.09;108717;1256;124301;-87
2023/04/15 12:08:01;;;;;;;;;;;;;;;14.74;60.33;100920.78;108740;1257;59293;-87
2023/04/15 12:10:30;;;;;;;;;;;;;;;14.80;60.26;100917.84;108732;1259;125320;-87
2023/04/15 12:12:57;;;;;;;;;;;;;;;14.77;60.12;100924.69;108807;1257;75181;-88
2023/04/15 12:15:24;;;;;;;;;;;;;;;14.69;60.00;100930.96;108570;1257;300294;-85
2023/04/15 12:17:53;;;;;;;;;;;;;;;14.59;59.99;100930.31;108722;1256;124723;-86
2023/04/15 12:20:24;;;;;;;;;;;;;;;14.42;59.87;100934.67;108887;1256;59410;-86
2023/04/15 12:22:50;;;;;;;;;;;;;;;14.23;59.96;100934.27;108899;1256;125213;-86
2023/04/15 12:25:40;;;;;;;;;;;;;;;14.05;59.90;100934.21;108828;1257;73105;-86
2023/04/15 12:28:10;;;;;;;;;;;;;;;13.95;60.23;100940.95;108739;1256;124373;-85
2023/04/15 12:30:47;;;;;;;;;;;;;;;13.89;60.43;100939.27;108944;1256;71359;-86
2023/04/15 12:33:14;;;;;;;;;;;;;;;13.76;60.31;100942.26;108958;1257;59358;-86
2023/04/15 12:35:41;;;;;;;;;;;;;;;13.63;60.68;100945.59;108743;1257;124291;-86